Wetterdaten: Woche 28.03.05 - 03.04.05 (KW13)
Datum Zeit Temperatur Luftfeuchte Luftdruck Niederschlag Windrichtung Wind
28.03.2005 00:00 9,2 C 95 % 1011 hPa 0,0 l/m S 0,5 km/h (0 Bft)
28.03.2005 01:00 8,9 C 97 % 1011 hPa 0,0 l/m N 0,0 km/h (0 Bft)
28.03.2005 02:00 8,5 C 98 % 1011 hPa 0,0 l/m S 1,7 km/h (1 Bft)
28.03.2005 03:00 7,9 C 100 % 1011 hPa 0,0 l/m N 0,1 km/h (0 Bft)
28.03.2005 04:00 8,1 C 100 % 1012 hPa 0,0 l/m N 0,1 km/h (0 Bft)
28.03.2005 05:00 8,1 C 100 % 1012 hPa 0,0 l/m S-SW 0,8 km/h (0 Bft)
28.03.2005 06:00 8,0 C 100 % 1012 hPa 0,0 l/m N 0,6 km/h (0 Bft)
28.03.2005 07:00 7,9 C 100 % 1013 hPa 0,0 l/m S-SO 2,7 km/h (1 Bft)
28.03.2005 08:00 8,1 C 100 % 1013 hPa 0,0 l/m S 5,3 km/h (1 Bft)
28.03.2005 09:00 8,7 C 100 % 1013 hPa 0,0 l/m S 8,0 km/h (2 Bft)
28.03.2005 10:00 9,8 C 98 % 1014 hPa 0,0 l/m S-SO 8,0 km/h (2 Bft)
28.03.2005 11:00 11,5 C 80 % 1014 hPa 0,0 l/m S-SW 12,7 km/h (3 Bft)
28.03.2005 12:00 13,3 C 67 % 1014 hPa 0,0 l/m S-SW 12,5 km/h (3 Bft)
28.03.2005 13:00 14,0 C 60 % 1014 hPa 0,0 l/m W-SW 14,0 km/h (3 Bft)
28.03.2005 14:00 15,0 C 53 % 1014 hPa 0,0 l/m SW 14,8 km/h (3 Bft)
28.03.2005 15:00 14,0 C 57 % 1013 hPa 0,0 l/m W-SW 11,1 km/h (2 Bft)
28.03.2005 16:00 12,3 C 68 % 1013 hPa 0,0 l/m W 13,2 km/h (3 Bft)
28.03.2005 17:00 12,2 C 71 % 1013 hPa 0,0 l/m W 6,8 km/h (2 Bft)
28.03.2005 18:00 13,1 C 63 % 1013 hPa 0,0 l/m W 1,4 km/h (1 Bft)
28.03.2005 19:00 11,8 C 73 % 1014 hPa 0,0 l/m W-NW 11,0 km/h (2 Bft)
28.03.2005 20:00 10,5 C 77 % 1014 hPa 0,0 l/m W 3,4 km/h (1 Bft)
28.03.2005 21:00 10,1 C 80 % 1014 hPa 0,0 l/m N 0,0 km/h (0 Bft)
28.03.2005 22:00 9,4 C 84 % 1014 hPa 0,0 l/m N 0,0 km/h (0 Bft)
28.03.2005 23:00 9,2 C 86 % 1015 hPa 0,0 l/m N 0,0 km/h (0 Bft)
29.03.2005 00:00 8,8 C 87 % 1015 hPa 0,0 l/m N 0,0 km/h (0 Bft)
29.03.2005 01:00 8,6 C 89 % 1015 hPa 0,0 l/m N 0,0 km/h (0 Bft)
29.03.2005 02:00 8,3 C 91 % 1015 hPa 0,0 l/m N 0,0 km/h (0 Bft)
29.03.2005 03:00 7,8 C 93 % 1014 hPa 0,0 l/m N 0,0 km/h (0 Bft)
29.03.2005 04:00 7,6 C 94 % 1014 hPa 0,0 l/m N 0,0 km/h (0 Bft)
29.03.2005 05:00 7,4 C 95 % 1014 hPa 0,0 l/m N 0,0 km/h (0 Bft)
29.03.2005 06:00 7,1 C 97 % 1014 hPa 0,0 l/m NW 1,9 km/h (1 Bft)
29.03.2005 07:00 6,5 C 98 % 1014 hPa 0,0 l/m S 1,1 km/h (0 Bft)
29.03.2005 08:00 7,3 C 99 % 1014 hPa 0,0 l/m N 0,0 km/h (0 Bft)
29.03.2005 09:00 9,6 C 95 % 1014 hPa 0,0 l/m N-NO 0,3 km/h (0 Bft)
29.03.2005 10:00 12,3 C 70 % 1014 hPa 0,0 l/m NO 2,8 km/h (1 Bft)
29.03.2005 11:00 14,0 C 63 % 1014 hPa 0,0 l/m S 4,3 km/h (1 Bft)
29.03.2005 12:00 15,3 C 54 % 1014 hPa 0,0 l/m N-NO 7,5 km/h (2 Bft)
29.03.2005 13:00 17,0 C 48 % 1014 hPa 0,0 l/m N-NO 10,8 km/h (2 Bft)
29.03.2005 14:00 17,2 C 45 % 1013 hPa 0,0 l/m O 8,7 km/h (2 Bft)
29.03.2005 15:00 16,7 C 46 % 1013 hPa 0,0 l/m O-SO 7,7 km/h (2 Bft)
29.03.2005 16:00 16,5 C 46 % 1012 hPa 0,0 l/m O 8,4 km/h (2 Bft)
29.03.2005 17:00 16,1 C 47 % 1012 hPa 0,0 l/m O 7,2 km/h (2 Bft)
29.03.2005 18:00 12,6 C 63 % 1013 hPa 0,0 l/m W-NW 17,1 km/h (3 Bft)
29.03.2005 19:00 10,4 C 83 % 1013 hPa 0,0 l/m NW 5,7 km/h (1 Bft)
29.03.2005 20:00 9,8 C 86 % 1013 hPa 0,0 l/m N 10,3 km/h (2 Bft)
29.03.2005 21:00 9,2 C 84 % 1014 hPa 0,0 l/m N 3,0 km/h (1 Bft)
29.03.2005 22:00 9,0 C 89 % 1014 hPa 1,0 l/m W-SW 5,2 km/h (1 Bft)
29.03.2005 23:00 9,0 C 88 % 1014 hPa 0,0 l/m W-SW 6,3 km/h (2 Bft)
30.03.2005 00:00 8,7 C 95 % 1014 hPa 0,0 l/m O 3,0 km/h (1 Bft)
30.03.2005 01:00 8,7 C 98 % 1014 hPa 1,0 l/m S 7,8 km/h (2 Bft)
30.03.2005 02:00 8,7 C 100 % 1014 hPa 0,0 l/m S-SW 11,6 km/h (2 Bft)
30.03.2005 03:00 8,6 C 100 % 1014 hPa 0,0 l/m S-SW 6,8 km/h (2 Bft)
30.03.2005 04:00 8,4 C 100 % 1014 hPa 0,0 l/m S 1,3 km/h (1 Bft)
30.03.2005 05:00 8,2 C 100 % 1014 hPa 0,0 l/m S 3,9 km/h (1 Bft)
30.03.2005 06:00 8,1 C 100 % 1014 hPa 0,0 l/m S-SW 5,5 km/h (1 Bft)
30.03.2005 07:00 8,3 C 100 % 1014 hPa 0,0 l/m S 5,5 km/h (1 Bft)
30.03.2005 08:00 8,5 C 100 % 1014 hPa 0,0 l/m S 9,8 km/h (2 Bft)
30.03.2005 09:00 8,7 C 100 % 1014 hPa 2,0 l/m S 9,0 km/h (2 Bft)
30.03.2005 10:00 8,8 C 100 % 1015 hPa 0,0 l/m S 9,0 km/h (2 Bft)
30.03.2005 11:00 9,4 C 100 % 1015 hPa 1,0 l/m S 12,0 km/h (2 Bft)
30.03.2005 12:00 9,7 C 97 % 1015 hPa 0,0 l/m S-SW 11,7 km/h (2 Bft)
30.03.2005 13:00 10,1 C 94 % 1015 hPa 1,0 l/m SW 9,0 km/h (2 Bft)
30.03.2005 14:00 10,1 C 92 % 1015 hPa 3,0 l/m W 5,5 km/h (1 Bft)
30.03.2005 15:00 10,1 C 92 % 1015 hPa 1,0 l/m W-SW 0,4 km/h (0 Bft)
30.03.2005 16:00 10,3 C 93 % 1015 hPa 2,0 l/m S-SW 3,4 km/h (1 Bft)
30.03.2005 17:00 10,3 C 93 % 1015 hPa 0,0 l/m W 0,8 km/h (0 Bft)
30.03.2005 18:00 9,8 C 91 % 1016 hPa 1,0 l/m W-NW 2,6 km/h (1 Bft)
30.03.2005 19:00 9,4 C 93 % 1016 hPa 0,0 l/m W 0,5 km/h (0 Bft)
30.03.2005 20:00 9,1 C 96 % 1017 hPa 0,0 l/m W 2,5 km/h (1 Bft)
30.03.2005 21:00 8,8 C 97 % 1017 hPa 0,0 l/m W 0,3 km/h (0 Bft)
30.03.2005 22:00 8,6 C 98 % 1018 hPa 0,0 l/m N 0,0 km/h (0 Bft)
30.03.2005 23:00 8,4 C 98 % 1018 hPa 1,0 l/m N 0,0 km/h (0 Bft)
31.03.2005 00:00 8,3 C 99 % 1018 hPa 0,0 l/m W 3,0 km/h (1 Bft)
31.03.2005 01:00 8,0 C 99 % 1018 hPa 1,0 l/m W 0,9 km/h (0 Bft)
31.03.2005 02:00 7,8 C 100 % 1018 hPa 0,0 l/m N 0,0 km/h (0 Bft)
31.03.2005 03:00 7,8 C 100 % 1018 hPa 0,0 l/m N 0,0 km/h (0 Bft)
31.03.2005 04:00 7,8 C 100 % 1018 hPa 0,0 l/m N 0,0 km/h (0 Bft)
31.03.2005 05:00 7,8 C 100 % 1018 hPa 0,0 l/m SW 2,7 km/h (1 Bft)
31.03.2005 06:00 7,8 C 100 % 1019 hPa 0,0 l/m NW 2,4 km/h (1 Bft)
31.03.2005 07:00 7,7 C 100 % 1019 hPa 0,0 l/m W 2,7 km/h (1 Bft)
31.03.2005 08:00 7,8 C 100 % 1020 hPa 0,0 l/m N 1,2 km/h (1 Bft)
31.03.2005 09:00 8,1 C 100 % 1020 hPa 0,0 l/m N 9,3 km/h (2 Bft)
31.03.2005 10:00 8,2 C 100 % 1020 hPa 0,0 l/m N-NO 10,5 km/h (2 Bft)
31.03.2005 11:00 8,7 C 95 % 1021 hPa 0,0 l/m N-NO 12,7 km/h (3 Bft)
31.03.2005 12:00 8,9 C 88 % 1021 hPa 0,0 l/m N-NO 14,7 km/h (3 Bft)
31.03.2005 13:00 10,3 C 78 % 1021 hPa 0,0 l/m N-NO 13,2 km/h (3 Bft)
31.03.2005 14:00 11,1 C 73 % 1021 hPa 0,0 l/m N 9,9 km/h (2 Bft)
31.03.2005 15:00 12,3 C 66 % 1021 hPa 0,0 l/m N 9,1 km/h (2 Bft)
31.03.2005 16:00 13,0 C 55 % 1021 hPa 0,0 l/m N 15,1 km/h (3 Bft)
31.03.2005 17:00 13,1 C 54 % 1021 hPa 0,0 l/m N-NO 15,4 km/h (3 Bft)
31.03.2005 18:00 12,1 C 57 % 1021 hPa 0,0 l/m N 10,0 km/h (2 Bft)
31.03.2005 19:00 11,0 C 63 % 1022 hPa 0,0 l/m N-NO 12,3 km/h (3 Bft)
31.03.2005 20:00 9,8 C 65 % 1022 hPa 0,0 l/m N-NO 8,6 km/h (2 Bft)
31.03.2005 21:00 8,9 C 67 % 1023 hPa 0,0 l/m N-NO 6,7 km/h (2 Bft)
31.03.2005 22:00 8,2 C 68 % 1023 hPa 0,0 l/m N-NO 3,7 km/h (1 Bft)
31.03.2005 23:00 6,8 C 72 % 1023 hPa 0,0 l/m N 1,2 km/h (1 Bft)
01.04.2005 00:00 5,4 C 76 % 1023 hPa 0,0 l/m NW 3,8 km/h (1 Bft)
01.04.2005 01:00 4,5 C 76 % 1024 hPa 0,0 l/m NW 4,7 km/h (1 Bft)
01.04.2005 02:00 3,6 C 77 % 1024 hPa 0,0 l/m NW 7,4 km/h (2 Bft)
01.04.2005 03:00 3,0 C 77 % 1024 hPa 0,0 l/m NW 10,1 km/h (2 Bft)
01.04.2005 04:00 2,5 C 76 % 1024 hPa 0,0 l/m NW 9,4 km/h (2 Bft)
01.04.2005 05:00 1,8 C 77 % 1024 hPa 0,0 l/m NW 7,6 km/h (2 Bft)
01.04.2005 06:00 1,2 C 78 % 1024 hPa 0,0 l/m N-NW 9,0 km/h (2 Bft)
01.04.2005 07:00 0,8 C 79 % 1024 hPa 0,0 l/m NW 6,5 km/h (2 Bft)
01.04.2005 08:00 1,7 C 79 % 1025 hPa 0,0 l/m N-NW 12,1 km/h (2 Bft)
01.04.2005 09:00 4,1 C 71 % 1025 hPa 0,0 l/m N 13,6 km/h (3 Bft)
01.04.2005 10:00 6,9 C 61 % 1025 hPa 0,0 l/m N 14,2 km/h (3 Bft)
01.04.2005 11:00 9,4 C 53 % 1025 hPa 0,0 l/m N-NO 16,5 km/h (3 Bft)
01.04.2005 12:00 11,4 C 43 % 1025 hPa 0,0 l/m NO 21,1 km/h (4 Bft)
01.04.2005 13:00 12,7 C 38 % 1025 hPa 0,0 l/m NO 21,3 km/h (4 Bft)
01.04.2005 14:00 13,3 C 36 % 1025 hPa 0,0 l/m N-NO 22,5 km/h (4 Bft)
01.04.2005 15:00 13,7 C 33 % 1024 hPa 0,0 l/m O-NO 22,5 km/h (4 Bft)
01.04.2005 16:00 13,4 C 32 % 1024 hPa 0,0 l/m O-NO 22,4 km/h (4 Bft)
01.04.2005 17:00 12,8 C 32 % 1024 hPa 0,0 l/m O-NO 24,3 km/h (4 Bft)
01.04.2005 18:00 12,1 C 33 % 1024 hPa 0,0 l/m NO 23,2 km/h (4 Bft)
01.04.2005 19:00 10,1 C 37 % 1024 hPa 0,0 l/m NO 17,8 km/h (3 Bft)
01.04.2005 20:00 8,5 C 42 % 1024 hPa 0,0 l/m N-NO 13,3 km/h (3 Bft)
01.04.2005 21:00 7,1 C 47 % 1024 hPa 0,0 l/m N-NO 12,0 km/h (2 Bft)
01.04.2005 22:00 6,1 C 50 % 1024 hPa 0,0 l/m N 11,9 km/h (2 Bft)
01.04.2005 23:00 5,0 C 54 % 1024 hPa 0,0 l/m N-NW 8,9 km/h (2 Bft)
02.04.2005 00:00 3,9 C 58 % 1024 hPa 0,0 l/m N-NW 8,4 km/h (2 Bft)
02.04.2005 01:00 3,0 C 61 % 1024 hPa 0,0 l/m N-NW 6,3 km/h (2 Bft)
02.04.2005 02:00 2,1 C 66 % 1024 hPa 0,0 l/m N-NW 7,4 km/h (2 Bft)
02.04.2005 03:00 1,6 C 70 % 1023 hPa 0,0 l/m N-NW 8,5 km/h (2 Bft)
02.04.2005 04:00 0,9 C 74 % 1023 hPa 0,0 l/m NW 8,3 km/h (2 Bft)
02.04.2005 05:00 0,4 C 76 % 1023 hPa 0,0 l/m NW 4,2 km/h (1 Bft)
02.04.2005 06:00 -0,1 C 78 % 1023 hPa 0,0 l/m NW 4,9 km/h (1 Bft)
02.04.2005 07:00 -0,2 C 81 % 1023 hPa 0,0 l/m NW 7,5 km/h (2 Bft)
02.04.2005 08:00 1,1 C 80 % 1023 hPa 0,0 l/m N 8,2 km/h (2 Bft)
02.04.2005 09:00 4,1 C 69 % 1024 hPa 0,0 l/m N 8,9 km/h (2 Bft)
02.04.2005 10:00 8,0 C 56 % 1024 hPa 0,0 l/m N-NW 8,3 km/h (2 Bft)
02.04.2005 11:00 11,7 C 48 % 1023 hPa 0,0 l/m N 10,3 km/h (2 Bft)
02.04.2005 12:00 13,9 C 42 % 1023 hPa 0,0 l/m N 10,3 km/h (2 Bft)
02.04.2005 13:00 15,7 C 39 % 1023 hPa 0,0 l/m N-NO 12,3 km/h (3 Bft)
02.04.2005 14:00 17,0 C 36 % 1022 hPa 0,0 l/m N-NO 15,1 km/h (3 Bft)
02.04.2005 15:00 17,1 C 33 % 1022 hPa 0,0 l/m N-NO 16,1 km/h (3 Bft)
02.04.2005 16:00 17,0 C 29 % 1021 hPa 0,0 l/m O-NO 15,9 km/h (3 Bft)
02.04.2005 17:00 16,5 C 29 % 1021 hPa 0,0 l/m N-NO 17,6 km/h (3 Bft)
02.04.2005 18:00 16,0 C 32 % 1021 hPa 0,0 l/m NO 15,9 km/h (3 Bft)
02.04.2005 19:00 14,0 C 36 % 1021 hPa 0,0 l/m NO 10,7 km/h (2 Bft)
02.04.2005 20:00 11,7 C 41 % 1022 hPa 0,0 l/m N-NO 5,2 km/h (1 Bft)
02.04.2005 21:00 9,4 C 46 % 1022 hPa 0,0 l/m NW 6,9 km/h (2 Bft)
02.04.2005 22:00 8,0 C 51 % 1022 hPa 0,0 l/m W-NW 8,6 km/h (2 Bft)
02.04.2005 23:00 6,8 C 54 % 1022 hPa 0,0 l/m NW 7,5 km/h (2 Bft)
03.04.2005 00:00 5,6 C 58 % 1022 hPa 0,0 l/m W-NW 5,3 km/h (1 Bft)
03.04.2005 01:00 4,5 C 62 % 1023 hPa 0,0 l/m W 0,4 km/h (0 Bft)
03.04.2005 02:00 3,6 C 65 % 1023 hPa 0,0 l/m N 0,0 km/h (0 Bft)
03.04.2005 03:00 2,7 C 68 % 1023 hPa 0,0 l/m N 0,0 km/h (0 Bft)
03.04.2005 04:00 1,8 C 73 % 1023 hPa 0,0 l/m N 0,0 km/h (0 Bft)
03.04.2005 05:00 1,1 C 77 % 1023 hPa 0,0 l/m N 0,0 km/h (0 Bft)
03.04.2005 06:00 0,5 C 80 % 1023 hPa 0,0 l/m N 0,0 km/h (0 Bft)
03.04.2005 07:00 0,3 C 83 % 1024 hPa 0,0 l/m N 0,0 km/h (0 Bft)
03.04.2005 08:00 2,0 C 84 % 1024 hPa 0,0 l/m N 0,0 km/h (0 Bft)
03.04.2005 09:00 6,1 C 71 % 1024 hPa 0,0 l/m S 1,5 km/h (1 Bft)
03.04.2005 10:00 11,1 C 50 % 1025 hPa 0,0 l/m S 11,2 km/h (2 Bft)
03.04.2005 11:00 14,2 C 40 % 1025 hPa 0,0 l/m S-SO 12,0 km/h (2 Bft)
03.04.2005 12:00 15,9 C 36 % 1025 hPa 0,0 l/m S-SW 13,1 km/h (3 Bft)
03.04.2005 13:00 17,1 C 31 % 1024 hPa 0,0 l/m SW 11,0 km/h (2 Bft)
03.04.2005 14:00 18,4 C 29 % 1024 hPa 0,0 l/m O-SO 9,3 km/h (2 Bft)
03.04.2005 15:00 18,9 C 27 % 1024 hPa 0,0 l/m O 8,5 km/h (2 Bft)
03.04.2005 16:00 18,1 C 27 % 1023 hPa 0,0 l/m S-SW 5,9 km/h (2 Bft)
03.04.2005 17:00 18,1 C 26 % 1023 hPa 0,0 l/m O-NO 6,7 km/h (2 Bft)
03.04.2005 18:00 18,2 C 26 % 1023 hPa 0,0 l/m NO 5,0 km/h (1 Bft)
03.04.2005 19:00 16,1 C 30 % 1023 hPa 0,0 l/m NO 0,5 km/h (0 Bft)
03.04.2005 20:00 12,6 C 39 % 1024 hPa 0,0 l/m N 0,0 km/h (0 Bft)
03.04.2005 21:00 10,1 C 44 % 1024 hPa 0,0 l/m N 0,0 km/h (0 Bft)
03.04.2005 22:00 8,6 C 51 % 1024 hPa 0,0 l/m W 1,7 km/h (1 Bft)
03.04.2005 23:00 7,5 C 56 % 1024 hPa 0,0 l/m W-NW 0,6 km/h (0 Bft)
Min-Datum _ 02.04.05 03.04.05 28.03.05 - - 28.03.05
_ Min-Zeit 07:17 16:30 00:00 - - 00:03
Minimum _ -0,4 C 26 % 1011 hPa - - 0,0 km/h (0 Bft)
Max-Datum _ 03.04.05 28.03.05 01.04.05 30.03.05 - 01.04.05
_ Max-Zeit 15:31 03:16 07:58 14:57 - 14:24
Maximum _ 19,2 C 100 % 1025 hPa 3,0 l/m - 39,3 km/h
N-NO (6 Bft)
Durchschnitt _ 9,3 C 72 % 1019 hPa #15,0 l/m N 7,1 km/h (2 Bft)

Durchschnitt Minimum Temp.8,8 C
Durchschnitt Maximum Temp.9,8 C